Time;durP1;ratioP1;P1;durP2;ratioP2;P2;SDS_P1;SDS_P2;PMS_P1;PMS_P2;Temp;Humidity;BMP_temperature;BMP_pressure;BME280_temperature;BME280_humidity;BME280_pressure;Samples;Min_cycle;Max_cycle;Signal;HPM_P1;HPM_P2
2022/01/09 00:01:01;;;;;;;16.05;13.30;;;;;;;3.69;100.00;98687.94;4925604;28;20031;-74
2022/01/09 00:03:26;;;;;;;15.45;13.05;;;;;;;3.69;100.00;98687.94;4910818;28;20074;-74
2022/01/09 00:05:51;;;;;;;15.43;13.73;;;;;;;3.68;100.00;98686.28;4925917;28;20116;-80
2022/01/09 00:08:17;;;;;;;17.77;15.23;;;;;;;3.71;100.00;98685.84;4919329;28;20047;-80
2022/01/09 00:10:47;;;;;;;17.30;14.75;;;;;;;3.71;100.00;98686.66;4915485;28;20762;-80
2022/01/09 00:13:13;;;;;;;17.60;14.18;;;;;;;3.72;100.00;98684.81;4926445;28;20035;-80
2022/01/09 00:15:38;;;;;;;17.15;13.98;;;;;;;3.67;100.00;98685.47;4908461;28;20061;-80
2022/01/09 00:18:04;;;;;;;17.80;15.27;;;;;;;3.61;100.00;98681.03;4922490;28;20034;-79
2022/01/09 00:20:29;;;;;;;15.80;14.10;;;;;;;3.73;100.00;98694.44;4912247;28;20046;-79
2022/01/09 00:22:55;;;;;;;17.38;14.35;;;;;;;3.67;100.00;98695.31;4926101;28;20998;-81
2022/01/09 00:25:22;;;;;;;15.88;13.90;;;;;;;3.70;100.00;98694.88;4923681;28;20925;-81
2022/01/09 00:27:49;;;;;;;17.33;14.60;;;;;;;3.71;100.00;98693.84;4911100;28;20106;-82
2022/01/09 00:30:16;;;;;;;18.38;14.52;;;;;;;3.70;100.00;98694.88;4924637;28;20112;-81
2022/01/09 00:32:42;;;;;;;18.65;14.73;;;;;;;3.69;100.00;98687.94;4909307;28;20046;-81
2022/01/09 00:35:08;;;;;;;16.70;14.90;;;;;;;3.69;100.00;98686.09;4924525;28;20047;-81
2022/01/09 00:37:34;;;;;;;19.33;15.70;;;;;;;3.73;100.00;98686.47;4924456;28;21782;-81
2022/01/09 00:40:00;;;;;;;18.83;15.02;;;;;;;3.71;100.00;98696.50;4908506;28;20055;-81
2022/01/09 00:42:25;;;;;;;16.77;14.85;;;;;;;3.67;100.00;98687.34;4925469;28;20050;-81
2022/01/09 00:44:51;;;;;;;18.90;15.40;;;;;;;3.68;100.00;98687.09;4906153;28;20054;-81
2022/01/09 00:47:16;;;;;;;19.33;15.85;;;;;;;3.70;100.00;98689.56;4925078;28;20060;-80
2022/01/09 00:49:42;;;;;;;17.98;15.30;;;;;;;3.73;100.00;98694.44;4925287;28;20550;-81
2022/01/09 00:52:07;;;;;;;19.52;16.95;;;;;;;3.61;100.00;98685.53;4909587;28;20042;-82
2022/01/09 00:54:32;;;;;;;19.40;16.88;;;;;;;3.64;100.00;98690.44;4924488;28;20082;-81
2022/01/09 00:56:58;;;;;;;17.45;15.18;;;;;;;3.71;100.00;98683.19;4909085;28;20039;-81
2022/01/09 00:59:23;;;;;;;20.13;15.90;;;;;;;3.75;100.00;98689.69;4922953;28;20042;-81
2022/01/09 01:01:49;;;;;;;17.98;16.00;;;;;;;3.75;100.00;98697.69;4908110;28;20035;-81
2022/01/09 01:04:14;;;;;;;17.90;15.85;;;;;;;3.73;100.00;98691.78;4908601;28;20105;-82
2022/01/09 01:06:40;;;;;;;18.58;16.58;;;;;;;3.77;100.00;98700.94;4923848;28;20521;-81
2022/01/09 01:09:05;;;;;;;19.30;16.27;;;;;;;3.72;100.00;98696.28;4894537;28;20481;-81
2022/01/09 01:11:31;;;;;;;19.77;17.60;;;;;;;3.71;100.00;98691.19;4925675;28;20042;-81
2022/01/09 01:13:57;;;;;;;20.00;17.75;;;;;;;3.70;100.00;98695.69;4923774;28;20032;-81
2022/01/09 01:16:22;;;;;;;20.85;18.63;;;;;;;3.73;100.00;98694.44;4911337;28;20065;-81
2022/01/09 01:18:48;;;;;;;21.67;18.25;;;;;;;3.69;100.00;98687.94;4911911;28;20062;-81
2022/01/09 01:21:13;;;;;;;20.75;18.35;;;;;;;3.68;100.00;98686.28;4910503;28;20065;-81
2022/01/09 01:23:39;;;;;;;22.98;19.08;;;;;;;3.72;100.00;98696.28;4924521;28;20138;-82
2022/01/09 01:26:05;;;;;;;21.52;16.75;;;;;;;3.73;100.00;98689.13;4925391;28;20078;-80
2022/01/09 01:28:31;;;;;;;19.95;17.55;;;;;;;3.76;100.00;98689.50;4911249;28;20047;-80
2022/01/09 01:30:56;;;;;;;22.25;19.15;;;;;;;3.74;100.00;98693.41;4907279;28;20038;-80
2022/01/09 01:33:23;;;;;;;21.48;19.17;;;;;;;3.72;100.00;98692.78;4907858;28;20117;-81
2022/01/09 01:35:49;;;;;;;21.65;19.13;;;;;;;3.74;100.00;98704.06;4921858;28;20038;-81
2022/01/09 01:38:14;;;;;;;21.25;18.00;;;;;;;3.74;100.00;98698.72;4920335;28;20027;-82
2022/01/09 01:40:43;;;;;;;21.15;18.00;;;;;;;3.76;100.00;98702.00;4914779;28;20882;-81
2022/01/09 01:43:08;;;;;;;20.20;17.98;;;;;;;3.69;100.00;98694.06;4926980;28;20078;-82
2022/01/09 01:45:34;;;;;;;21.52;19.10;;;;;;;3.77;100.00;98706.28;4891444;28;20211;-82
2022/01/09 01:48:05;;;;;;;22.17;18.52;;;;;;;3.76;100.00;98708.13;4925327;28;20054;-82
2022/01/09 01:50:38;;;;;;;22.80;20.15;;;;;;;3.73;100.00;98707.75;4919095;28;20038;-82
2022/01/09 01:53:10;;;;;;;23.52;20.40;;;;;;;3.78;100.00;98713.22;4914913;28;20075;-81
2022/01/09 01:55:37;;;;;;;23.30;20.80;;;;;;;3.76;100.00;98716.13;4924907;28;20038;-81
2022/01/09 01:58:04;;;;;;;23.63;20.55;;;;;;;3.79;100.00;98722.84;4911447;28;20085;-82
2022/01/09 02:00:30;;;;;;;31.23;21.27;;;;;;;3.67;100.00;98712.09;4928984;28;20057;-81
2022/01/09 02:02:55;;;;;;;25.25;22.50;;;;;;;3.75;100.00;98732.31;4922704;28;20456;-81
2022/01/09 02:05:26;;;;;;;26.65;21.80;;;;;;;3.74;100.00;98728.03;4908722;28;20122;-80
2022/01/09 02:07:52;;;;;;;24.98;22.27;;;;;;;3.61;100.00;98701.50;4908805;29;20806;-79
2022/01/09 02:10:18;;;;;;;24.02;21.10;;;;;;;3.80;100.00;98732.47;4905101;28;20075;-79
2022/01/09 02:12:44;;;;;;;27.65;23.00;;;;;;;3.77;100.00;98732.91;4912352;28;20499;-80
2022/01/09 02:15:37;;;;;;;26.50;23.40;;;;;;;3.76;100.00;98733.94;4892221;28;20158;-79
2022/01/09 02:18:09;;;;;;;29.30;24.87;;;;;;;3.74;100.00;98726.16;4906809;29;20031;-79
2022/01/09 02:20:36;;;;;;;27.65;23.95;;;;;;;3.78;100.00;98737.19;4904405;28;20031;-79
2022/01/09 02:23:04;;;;;;;30.52;25.65;;;;;;;3.76;100.00;98737.41;4897121;28;20162;-79
2022/01/09 02:25:29;;;;;;;33.60;27.85;;;;;;;3.74;100.00;98744.81;4926336;28;23945;-79
2022/01/09 02:27:55;;;;;;;31.63;27.75;;;;;;;3.73;100.00;98742.38;4910791;28;20211;-81
2022/01/09 02:30:21;;;;;;;32.92;28.20;;;;;;;3.77;100.00;98755.03;4928022;28;20031;-78
2022/01/09 02:32:46;;;;;;;33.20;28.08;;;;;;;3.80;100.00;98748.44;4905730;28;20171;-79
2022/01/09 02:35:12;;;;;;;36.38;29.48;;;;;;;3.80;100.00;98745.78;4918511;28;20142;-80
2022/01/09 02:37:37;;;;;;;34.95;28.05;;;;;;;3.79;100.00;98752.13;4926917;28;20491;-78
2022/01/09 02:40:05;;;;;;;37.20;28.95;;;;;;;3.80;100.00;98748.44;4926282;28;20117;-79
2022/01/09 02:42:31;;;;;;;35.90;29.80;;;;;;;3.82;100.00;98765.00;4926650;28;20126;-79
2022/01/09 02:44:57;;;;;;;37.13;29.85;;;;;;;3.82;100.00;98767.66;4922391;28;20073;-80
2022/01/09 02:47:25;;;;;;;38.35;30.70;;;;;;;3.76;100.00;98771.22;4916949;28;20070;-79
2022/01/09 02:49:53;;;;;;;38.10;30.05;;;;;;;3.76;100.00;98776.56;4926387;28;20125;-80
2022/01/09 02:52:35;;;;;;;37.88;30.77;;;;;;;3.76;100.00;98789.88;4909759;28;20065;-81
2022/01/09 02:55:12;;;;;;;37.63;29.42;;;;;;;3.77;100.00;98786.16;4927400;28;20035;-81
2022/01/09 02:57:42;;;;;;;39.38;30.80;;;;;;;3.71;100.00;98771.88;4911779;28;20046;-81
2022/01/09 03:00:10;;;;;;;38.00;30.48;;;;;;;3.89;100.00;98789.72;4927666;28;20038;-81
2022/01/09 03:02:36;;;;;;;40.20;29.98;;;;;;;3.86;100.00;98789.34;4927607;28;20157;-83
2022/01/09 03:05:02;;;;;;;37.58;30.10;;;;;;;3.87;100.00;98785.69;4919105;28;20053;-84
2022/01/09 03:07:28;;;;;;;37.92;28.58;;;;;;;3.93;100.00;98788.28;4935007;28;20061;-83
2022/01/09 03:09:53;;;;;;;40.15;29.55;;;;;;;3.94;100.00;98781.91;4914444;28;20704;-83
2022/01/09 03:12:19;;;;;;;42.80;30.42;;;;;;;3.99;100.00;98790.03;4933102;28;20057;-82
2022/01/09 03:14:46;;;;;;;33.55;26.52;;;;;;;3.97;100.00;98781.47;4927604;28;20043;-82
2022/01/09 03:17:11;;;;;;;31.85;22.75;;;;;;;4.10;100.00;98795.69;4914496;28;20450;-81
2022/01/09 03:19:37;;;;;;;30.02;20.80;;;;;;;4.17;100.00;98791.91;4925806;28;20030;-81
2022/01/09 03:22:02;;;;;;;31.20;17.88;;;;;;;4.29;100.00;98800.00;4913015;28;20055;-81
2022/01/09 03:24:28;;;;;;;29.73;15.88;;;;;;;4.35;100.00;98799.09;4943343;28;22736;-80
2022/01/09 03:26:53;;;;;;;28.48;14.82;;;;;;;4.38;100.00;98793.31;4922948;28;22331;-81
2022/01/09 03:29:19;;;;;;;28.45;14.65;;;;;;;4.37;100.00;98791.69;4899969;28;20423;-81
2022/01/09 03:31:44;;;;;;;32.05;13.88;;;;;;;4.44;100.00;98797.75;4941258;28;20049;-81
2022/01/09 03:34:10;;;;;;;37.40;19.25;;;;;;;4.60;100.00;98795.53;4909289;28;20059;-81
2022/01/09 03:36:35;;;;;;;68.20;26.38;;;;;;;4.70;100.00;98812.66;4925918;28;20034;-82
2022/01/09 03:39:00;;;;;;;30.35;11.30;;;;;;;4.81;100.00;98818.25;4924471;28;20042;-84
2022/01/09 03:41:27;;;;;;;44.35;13.95;;;;;;;4.89;100.00;98820.63;4926583;28;20089;-82
2022/01/09 03:43:52;;;;;;;71.68;25.70;;;;;;;4.92;100.00;98818.31;4934904;28;20039;-84
2022/01/09 03:46:17;;;;;;;59.00;14.25;;;;;;;5.07;100.00;98830.44;4914122;28;20110;-84
2022/01/09 03:48:43;;;;;;;56.72;18.20;;;;;;;5.09;100.00;98831.00;4920457;28;20601;-86
2022/01/09 03:51:10;;;;;;;56.70;19.15;;;;;;;5.09;100.00;98836.34;4930533;28;20034;-84
2022/01/09 03:53:36;;;;;;;49.80;16.92;;;;;;;5.11;100.00;98834.28;4907208;28;20101;-83
2022/01/09 03:56:01;;;;;;;64.80;19.58;;;;;;;5.07;100.00;98838.44;4912199;28;20471;-82
2022/01/09 03:58:26;;;;;;;51.47;16.15;;;;;;;5.05;100.00;98829.81;4908455;28;20067;-83
2022/01/09 04:00:52;;;;;;;70.60;22.70;;;;;;;5.13;100.00;98849.03;4928583;28;20058;-82
2022/01/09 04:03:17;;;;;;;37.95;8.75;;;;;;;5.10;100.00;98838.00;4921814;28;20042;-85
2022/01/09 04:05:43;;;;;;;42.85;8.55;;;;;;;5.10;100.00;98844.13;4915198;28;20051;-82
2022/01/09 04:08:08;;;;;;;45.72;10.43;;;;;;;5.15;100.00;98851.47;4924887;28;20031;-81
2022/01/09 04:10:40;;;;;;;27.85;7.22;;;;;;;5.14;100.00;98847.16;4910068;28;20055;-82
2022/01/09 04:13:06;;;;;;;24.65;4.78;;;;;;;5.17;100.00;98858.22;4927179;28;20046;-82
2022/01/09 04:15:32;;;;;;;42.28;11.77;;;;;;;5.10;100.00;98859.34;4902916;28;23595;-83
2022/01/09 04:17:58;;;;;;;70.13;19.95;;;;;;;5.20;100.00;98862.28;4899079;28;20050;-80
2022/01/09 04:20:31;;;;;;;82.43;26.75;;;;;;;5.27;100.00;98863.00;4924360;28;20149;-80
2022/01/09 04:22:57;;;;;;;69.18;17.90;;;;;;;5.31;100.00;98869.53;4910038;28;20419;-83
2022/01/09 04:25:23;;;;;;;72.07;20.60;;;;;;;5.35;100.00;98876.03;4908968;28;20038;-81
2022/01/09 04:27:50;;;;;;;67.80;14.80;;;;;;;5.31;100.00;98877.53;4920933;28;20051;-80
2022/01/09 04:30:16;;;;;;;92.43;26.30;;;;;;;5.32;100.00;98889.81;4917276;28;20054;-80
2022/01/09 04:32:42;;;;;;;66.07;15.20;;;;;;;5.41;100.00;98888.47;4923766;28;20126;-79
2022/01/09 04:35:08;;;;;;;37.53;6.28;;;;;;;5.36;100.00;98882.19;4910182;28;22972;-80
2022/01/09 04:37:34;;;;;;;40.33;6.63;;;;;;;5.29;100.00;98887.59;4906726;28;20603;-80
2022/01/09 04:40:00;;;;;;;63.80;9.85;;;;;;;5.40;100.00;98900.19;4908963;28;20131;-79
2022/01/09 04:42:34;;;;;;;70.50;9.85;;;;;;;5.45;100.00;98911.00;4923472;28;20047;-79
2022/01/09 04:44:59;;;;;;;;;;;;;;;5.54;100.00;98908.00;4924919;28;20097;-79
2022/01/09 04:47:25;;;;;;;65.10;9.23;;;;;;;5.56;100.00;98916.63;4910623;28;20520;-78
2022/01/09 04:49:51;;;;;;;67.90;13.80;;;;;;;5.63;100.00;98922.69;4925274;28;20047;-78
2022/01/09 04:52:20;;;;;;;64.05;8.35;;;;;;;5.67;100.00;98923.84;4910819;28;20110;-78
2022/01/09 04:54:46;;;;;;;59.85;7.88;;;;;;;5.69;100.00;98932.47;4924102;28;20093;-78
2022/01/09 04:57:12;;;;;;;54.88;7.25;;;;;;;5.68;100.00;98930.81;4922563;28;20727;-78
2022/01/09 04:59:38;;;;;;;60.20;9.35;;;;;;;5.74;100.00;98949.44;4907617;28;20073;-76
2022/01/09 05:02:03;;;;;;;66.63;10.63;;;;;;;5.74;100.00;98956.63;4922797;28;20035;-77
2022/01/09 05:04:29;;;;;;;66.95;10.18;;;;;;;5.78;100.00;98951.66;4908505;28;20142;-77
2022/01/09 05:06:54;;;;;;;49.92;8.48;;;;;;;5.77;100.00;98966.06;4924027;28;20034;-77
2022/01/09 05:09:20;;;;;;;63.20;9.55;;;;;;;5.77;100.00;98963.38;4920942;28;20045;-77
2022/01/09 05:11:45;;;;;;;57.45;8.50;;;;;;;5.74;100.00;98978.00;4914131;28;20090;-78
2022/01/09 05:14:11;;;;;;;60.63;9.38;;;;;;;5.75;100.00;98984.97;4922160;28;20035;-76
2022/01/09 05:16:41;;;;;;;44.45;7.88;;;;;;;5.76;100.00;98981.28;4907493;28;20058;-76
2022/01/09 05:19:16;;;;;;;61.53;9.38;;;;;;;5.76;100.00;98986.63;4922911;28;20046;-76
2022/01/09 05:21:41;;;;;;;64.20;8.52;;;;;;;5.75;100.00;98998.31;4916779;28;20038;-76
2022/01/09 05:24:07;;;;;;;49.13;8.57;;;;;;;5.70;100.00;98992.84;4915161;28;20054;-78
2022/01/09 05:26:32;;;;;;;55.75;6.65;;;;;;;5.72;100.00;99002.28;4925844;28;20035;-79
2022/01/09 05:28:58;;;;;;;56.97;7.47;;;;;;;5.72;100.00;99012.97;4909812;28;20057;-79
2022/01/09 05:31:24;;;;;;;48.15;6.22;;;;;;;5.70;100.00;99008.88;4926789;28;20049;-77
2022/01/09 05:33:49;;;;;;;49.75;7.68;;;;;;;5.68;100.00;99017.09;4920314;28;20062;-76
2022/01/09 05:36:15;;;;;;;62.92;9.27;;;;;;;5.67;100.00;99031.50;4918442;28;20522;-77
2022/01/09 05:38:40;;;;;;;53.95;6.38;;;;;;;5.67;100.00;99030.72;4925876;28;20104;-76
2022/01/09 05:41:05;;;;;;;53.55;8.48;;;;;;;5.68;100.00;99043.00;4895143;28;20105;-76
2022/01/09 05:43:32;;;;;;;51.00;8.68;;;;;;;5.68;100.00;99043.00;4928538;28;20030;-77
2022/01/09 05:45:57;;;;;;;47.38;5.85;;;;;;;5.64;100.00;99039.16;4907356;28;20054;-77
2022/01/09 05:48:23;;;;;;;59.20;6.10;;;;;;;5.58;100.00;99048.06;4919402;28;20113;-77
2022/01/09 05:50:48;;;;;;;58.78;8.73;;;;;;;5.59;100.00;99042.53;4926074;28;20031;-76
2022/01/09 05:53:14;;;;;;;40.13;7.03;;;;;;;5.57;100.00;99051.78;4911685;28;20050;-78
2022/01/09 05:55:39;;;;;;;33.83;5.05;;;;;;;5.52;100.00;99057.00;4928883;28;20035;-77
2022/01/09 05:58:04;;;;;;;45.30;6.18;;;;;;;5.55;100.00;99059.22;4905923;28;20636;-77
2022/01/09 06:00:30;;;;;;;33.33;6.15;;;;;;;5.52;100.00;99065.81;4919203;28;20096;-78
2022/01/09 06:02:55;;;;;;;42.00;6.53;;;;;;;5.46;100.00;99062.19;4927112;28;20415;-78
2022/01/09 06:05:23;;;;;;;50.08;6.28;;;;;;;5.48;100.00;99065.44;4911036;28;20054;-76
2022/01/09 06:07:48;;;;;;;56.58;6.72;;;;;;;5.45;100.00;99068.56;4908482;28;20153;-76
2022/01/09 06:10:14;;;;;;;29.65;4.70;;;;;;;5.43;100.00;99075.97;4915633;28;20051;-76
2022/01/09 06:12:39;;;;;;;53.35;6.75;;;;;;;5.41;100.00;99080.72;4922056;28;20054;-77
2022/01/09 06:15:06;;;;;;;48.72;6.03;;;;;;;5.39;100.00;99093.47;4911843;28;20046;-76
2022/01/09 06:17:40;;;;;;;46.45;5.80;;;;;;;5.37;100.00;99089.38;4920185;28;20170;-76
2022/01/09 06:20:08;;;;;;;47.40;5.55;;;;;;;5.34;100.00;99100.53;4940400;28;20710;-77
2022/01/09 06:22:34;;;;;;;43.17;5.90;;;;;;;5.32;100.00;99114.09;4925633;28;20078;-75
2022/01/09 06:24:59;;;;;;;41.28;5.85;;;;;;;5.32;100.00;99114.09;4926167;28;20045;-76
2022/01/09 06:27:25;;;;;;;42.38;6.00;;;;;;;5.27;100.00;99121.97;4910707;28;20077;-77
2022/01/09 06:29:51;;;;;;;43.13;5.20;;;;;;;5.26;100.00;99130.97;4910144;28;20059;-76
2022/01/09 06:32:17;;;;;;;45.53;6.15;;;;;;;5.17;100.00;99135.00;4908273;28;20026;-76
2022/01/09 06:34:42;;;;;;;48.13;5.80;;;;;;;5.20;100.00;99138.03;4912751;28;20047;-76
2022/01/09 06:37:08;;;;;;;35.78;5.55;;;;;;;5.21;100.00;99150.34;4925600;28;20049;-77
2022/01/09 06:39:33;;;;;;;39.92;6.47;;;;;;;5.21;100.00;99149.53;4925183;28;20042;-76
2022/01/09 06:41:59;;;;;;;43.53;7.50;;;;;;;5.22;100.00;99156.50;4910562;28;20061;-76
2022/01/09 06:44:26;;;;;;;39.50;5.55;;;;;;;5.16;100.00;99154.69;4927167;28;20136;-76
2022/01/09 06:46:51;;;;;;;40.83;5.80;;;;;;;5.23;100.00;99163.47;4912897;28;21609;-77
2022/01/09 06:49:17;;;;;;;41.92;6.10;;;;;;;5.25;100.00;99172.06;4927651;28;20767;-76
2022/01/09 06:51:42;;;;;;;40.72;5.10;;;;;;;5.26;100.00;99179.03;4926718;28;20039;-76
2022/01/09 06:54:08;;;;;;;38.13;5.70;;;;;;;5.22;100.00;99177.84;4909666;28;20047;-76
2022/01/09 06:56:33;;;;;;;31.63;5.28;;;;;;;5.19;100.00;99188.97;4927694;28;20031;-76
2022/01/09 06:58:58;;;;;;;37.20;5.55;;;;;;;5.17;100.00;99191.03;4911368;28;20051;-76
2022/01/09 07:01:24;;;;;;;34.67;5.22;;;;;;;5.16;100.00;99197.41;4929067;28;20039;-76
2022/01/09 07:03:49;;;;;;;31.40;4.05;;;;;;;5.15;100.00;99206.44;4926064;28;21055;-75
2022/01/09 07:06:15;;;;;;;37.28;4.50;;;;;;;5.20;100.00;99211.97;4911055;28;20066;-76
2022/01/09 07:08:40;;;;;;;27.92;4.28;;;;;;;5.19;100.00;99221.81;4925398;28;20034;-75
2022/01/09 07:11:06;;;;;;;43.85;5.20;;;;;;;5.13;100.00;99222.69;4908916;28;20394;-75
2022/01/09 07:13:32;;;;;;;28.05;4.50;;;;;;;5.13;100.00;99227.22;4926721;28;20034;-75
2022/01/09 07:15:58;;;;;;;40.35;4.72;;;;;;;5.16;100.00;99234.78;4924172;28;20023;-75
2022/01/09 07:18:24;;;;;;;29.85;5.03;;;;;;;5.08;100.00;99225.19;4912019;28;20050;-75
2022/01/09 07:20:49;;;;;;;25.33;4.43;;;;;;;5.05;100.00;99240.81;4925896;28;20070;-75
2022/01/09 07:23:15;;;;;;;30.30;5.35;;;;;;;5.05;100.00;99236.28;4913095;28;20070;-75
2022/01/09 07:25:40;;;;;;;36.47;4.68;;;;;;;5.05;100.00;99240.81;4924196;28;20145;-75
2022/01/09 07:28:06;;;;;;;37.50;5.38;;;;;;;5.05;100.00;99251.47;4905496;28;20077;-75
2022/01/09 07:30:31;;;;;;;30.23;3.90;;;;;;;5.02;100.00;99258.91;4911506;28;20061;-76
2022/01/09 07:32:57;;;;;;;33.95;4.40;;;;;;;5.03;100.00;99263.19;4925757;28;20600;-76
2022/01/09 07:35:23;;;;;;;30.55;4.55;;;;;;;5.09;100.00;99258.03;4911629;28;20061;-74
2022/01/09 07:37:49;;;;;;;37.10;4.65;;;;;;;5.11;100.00;99261.31;4921566;28;20046;-74
2022/01/09 07:40:15;;;;;;;38.10;4.43;;;;;;;5.09;100.00;99268.69;4921884;28;20125;-75
2022/01/09 07:42:40;;;;;;;25.50;5.03;;;;;;;5.08;100.00;99280.41;4915809;28;20515;-75
2022/01/09 07:45:07;;;;;;;22.38;3.70;;;;;;;5.05;100.00;99283.50;4927119;28;20055;-75
2022/01/09 07:47:36;;;;;;;26.77;3.58;;;;;;;4.99;100.00;99296.69;4893508;28;20050;-74
2022/01/09 07:50:02;;;;;;;29.23;4.20;;;;;;;4.96;100.00;99297.13;4925042;28;20031;-74
2022/01/09 07:52:28;;;;;;;35.58;4.82;;;;;;;4.89;100.00;99292.84;4917502;28;20041;-74
2022/01/09 07:54:53;;;;;;;30.13;4.70;;;;;;;4.92;100.00;99314.59;4915367;28;20058;-76
2022/01/09 07:57:19;;;;;;;34.13;4.78;;;;;;;4.92;100.00;99317.25;4925519;28;20027;-74
2022/01/09 07:59:44;;;;;;;40.92;4.40;;;;;;;4.88;100.00;99317.88;4910530;28;20055;-74
2022/01/09 08:02:10;;;;;;;24.48;3.30;;;;;;;4.87;100.00;99334.94;4907779;28;20110;-75
2022/01/09 08:04:36;;;;;;;33.65;4.80;;;;;;;4.81;100.00;99328.59;4917073;28;20149;-75
2022/01/09 08:07:01;;;;;;;36.15;4.03;;;;;;;4.83;100.00;99349.72;4915820;28;20039;-75
2022/01/09 08:09:27;;;;;;;28.23;4.43;;;;;;;4.80;100.00;99350.97;4925893;28;20043;-75
2022/01/09 08:11:52;;;;;;;28.35;4.45;;;;;;;4.87;100.00;99356.28;4911347;28;20047;-75
2022/01/09 08:14:18;;;;;;;27.27;3.90;;;;;;;4.85;100.00;99361.00;4907870;28;20054;-75
2022/01/09 08:16:44;;;;;;;38.03;4.65;;;;;;;4.86;100.00;99368.78;4921354;28;20191;-75
2022/01/09 08:19:09;;;;;;;31.83;4.97;;;;;;;4.78;100.00;99369.03;4916000;28;20052;-74
2022/01/09 08:21:35;;;;;;;25.08;3.65;;;;;;;4.86;100.00;99373.31;4925889;28;20754;-75
2022/01/09 08:24:00;;;;;;;23.60;4.15;;;;;;;4.83;100.00;99382.56;4911421;28;20054;-75
2022/01/09 08:26:26;;;;;;;23.52;3.70;;;;;;;4.84;100.00;99378.84;4924876;28;20038;-75
2022/01/09 08:28:53;;;;;;;24.77;3.30;;;;;;;4.83;100.00;99393.22;4919901;28;20047;-75
2022/01/09 08:31:20;;;;;;;29.55;3.40;;;;;;;4.81;100.00;99383.78;4915292;28;20061;-74
2022/01/09 08:33:45;;;;;;;29.35;3.97;;;;;;;4.85;100.00;99396.53;4923307;28;20035;-75
2022/01/09 08:36:11;;;;;;;20.13;3.30;;;;;;;4.84;100.00;99392.19;4904513;28;20186;-75
2022/01/09 08:38:37;;;;;;;24.45;3.50;;;;;;;4.85;100.00;99395.69;4907762;28;20043;-75
2022/01/09 08:41:02;;;;;;;31.30;4.03;;;;;;;4.84;100.00;99402.84;4922429;28;20046;-75
2022/01/09 08:43:29;;;;;;;27.27;4.10;;;;;;;4.85;100.00;99401.84;4941864;28;20023;-74
2022/01/09 08:45:54;;;;;;;17.45;3.00;;;;;;;4.86;100.00;99403.47;4923428;28;20082;-73
2022/01/09 08:48:19;;;;;;;24.98;4.10;;;;;;;4.84;100.00;99410.88;4906728;28;20101;-74
2022/01/09 08:50:45;;;;;;;22.75;3.10;;;;;;;4.86;100.00;99414.16;4922597;28;20033;-74
2022/01/09 08:53:10;;;;;;;22.30;3.58;;;;;;;4.84;100.00;99416.19;4907280;28;20049;-75
2022/01/09 08:55:36;;;;;;;27.75;3.97;;;;;;;4.84;100.00;99421.53;4939607;28;20039;-75
2022/01/09 08:58:02;;;;;;;25.15;3.20;;;;;;;4.84;100.00;99416.19;4922686;28;20039;-74
2022/01/09 09:00:27;;;;;;;22.60;3.50;;;;;;;4.88;100.00;99438.78;4910330;28;20051;-74
2022/01/09 09:02:53;;;;;;;23.58;3.70;;;;;;;4.97;100.00;99432.19;4923819;28;20081;-73
2022/01/09 09:05:19;;;;;;;23.98;3.83;;;;;;;4.97;100.00;99421.50;4910780;28;20083;-74
2022/01/09 09:07:44;;;;;;;20.63;2.92;;;;;;;5.06;100.00;99435.44;4891207;28;20137;-75
2022/01/09 09:10:10;;;;;;;17.90;2.90;;;;;;;5.14;100.00;99431.72;4907677;28;20559;-74
2022/01/09 09:12:36;;;;;;;15.07;2.05;;;;;;;5.21;100.00;99437.84;4907016;28;20078;-74
2022/01/09 09:15:03;;;;;;;20.50;2.53;;;;;;;5.26;100.00;99446.03;4925267;28;20106;-74
2022/01/09 09:17:30;;;;;;;24.08;3.83;;;;;;;5.33;100.00;99454.81;4907045;28;20126;-74
2022/01/09 09:19:55;;;;;;;21.75;3.40;;;;;;;5.38;100.00;99439.00;4906624;28;21173;-74
2022/01/09 09:22:21;;;;;;;18.33;3.17;;;;;;;5.41;100.00;99457.25;4924349;28;20110;-74
2022/01/09 09:24:46;;;;;;;17.92;3.35;;;;;;;5.38;100.00;99452.34;4907401;28;20051;-74
2022/01/09 09:27:12;;;;;;;22.73;3.03;;;;;;;5.41;100.00;99457.25;4924850;28;20128;-75
2022/01/09 09:29:37;;;;;;;19.65;3.00;;;;;;;5.47;100.00;99469.75;4910970;28;20133;-75
2022/01/09 09:32:03;;;;;;;24.77;3.80;;;;;;;5.60;100.00;99478.72;4926124;28;20033;-75
2022/01/09 09:34:29;;;;;;;15.25;3.10;;;;;;;5.61;100.00;99475.03;4925426;28;20054;-75
2022/01/09 09:36:54;;;;;;;22.83;3.25;;;;;;;5.65;100.00;99492.25;4908362;28;20051;-75
2022/01/09 09:39:20;;;;;;;15.40;3.10;;;;;;;5.70;100.00;99495.13;4924879;28;20058;-75
2022/01/09 09:41:45;;;;;;;17.45;2.92;;;;;;;5.78;100.00;99497.53;4906106;28;20102;-75
2022/01/09 09:44:12;;;;;;;27.23;4.30;;;;;;;5.90;100.00;99511.88;4924218;28;20038;-75
2022/01/09 09:46:37;;;;;;;23.73;3.05;;;;;;;5.96;100.00;99516.38;4921710;28;20059;-75
2022/01/09 09:49:03;;;;;;;24.95;3.50;;;;;;;6.02;100.00;99519.22;4912217;28;20153;-75
2022/01/09 09:51:30;;;;;;;19.38;3.47;;;;;;;6.02;100.00;99513.88;4921547;28;20046;-74
2022/01/09 09:53:57;;;;;;;21.88;3.67;;;;;;;5.98;100.00;99532.19;4908366;28;20069;-74
2022/01/09 09:56:22;;;;;;;21.33;3.20;;;;;;;5.98;100.00;99530.34;4923801;28;20034;-74
2022/01/09 09:58:51;;;;;;;21.38;3.03;;;;;;;5.96;100.00;99532.41;4921173;28;20039;-75
2022/01/09 10:01:29;;;;;;;14.50;2.75;;;;;;;5.93;100.00;99538.19;4915264;28;20084;-75
2022/01/09 10:04:14;;;;;;;15.77;2.97;;;;;;;5.89;100.00;99536.94;4924052;28;20125;-74
2022/01/09 10:06:44;;;;;;;25.90;4.18;;;;;;;5.88;100.00;99550.53;4910620;28;20051;-74
2022/01/09 10:09:14;;;;;;;24.55;2.90;;;;;;;5.93;100.00;99559.59;4925634;28;20042;-74
2022/01/09 10:11:44;;;;;;;18.38;3.17;;;;;;;5.95;100.00;99554.00;4908711;28;20585;-74
2022/01/09 10:14:18;;;;;;;18.20;2.78;;;;;;;5.92;100.00;99552.56;4922445;28;20069;-74
2022/01/09 10:17:09;;;;;;;19.88;2.92;;;;;;;5.91;100.00;99556.25;4924767;28;20087;-74
2022/01/09 10:20:02;;;;;;;17.65;2.67;;;;;;;5.97;100.00;99560.78;4934138;28;20055;-74
2022/01/09 10:22:51;;;;;;;24.73;3.33;;;;;;;5.97;100.00;99566.13;4928358;28;20035;-74
2022/01/09 10:25:30;;;;;;;19.60;2.78;;;;;;;5.98;100.00;99581.13;4912528;28;20063;-74
2022/01/09 10:28:04;;;;;;;14.95;3.20;;;;;;;6.04;100.00;99571.44;4925125;28;20030;-74
2022/01/09 10:30:42;;;;;;;21.17;3.17;;;;;;;6.13;100.00;99585.38;4912041;28;20641;-75
2022/01/09 10:33:16;;;;;;;20.40;2.63;;;;;;;6.13;100.00;99580.84;4942312;28;20042;-74
2022/01/09 10:35:42;;;;;;;;;;;;;;;6.19;100.00;99584.53;4917104;28;20493;-73
2022/01/09 10:38:21;;;;;;;20.02;3.38;;;;;;;6.13;100.00;99588.84;4925937;28;19918;-73
2022/01/09 10:41:04;;;;;;;19.13;3.70;;;;;;;6.14;100.00;99590.53;4926165;28;23672;-73
2022/01/09 10:43:39;;;;;;;18.98;3.97;;;;;;;6.42;100.00;99595.50;4916276;28;20130;-75
2022/01/09 10:46:05;;;;;;;22.92;4.47;;;;;;;6.64;100.00;99592.44;4922809;28;20209;-74
2022/01/09 10:48:41;;;;;;;16.73;3.55;;;;;;;6.93;100.00;99607.84;4908669;28;20486;-74
2022/01/09 10:51:09;;;;;;;18.75;4.47;;;;;;;7.18;100.00;99598.97;4926781;28;20818;-74
2022/01/09 10:53:42;;;;;;;15.35;2.70;;;;;;;7.37;100.00;99597.97;4920372;28;20097;-74
2022/01/09 10:56:11;;;;;;;17.33;3.00;;;;;;;7.65;100.00;99605.50;4900206;28;20059;-75
2022/01/09 10:58:45;;;;;;;17.15;3.05;;;;;;;7.66;100.00;99614.34;4931763;28;20038;-75
2022/01/09 11:01:28;;;;;;;15.10;3.28;;;;;;;7.97;100.00;99617.88;4920275;28;20093;-75
2022/01/09 11:04:08;;;;;;;26.15;3.72;;;;;;;7.94;100.00;99626.41;4938659;28;20023;-74
2022/01/09 11:06:43;;;;;;;16.42;3.03;;;;;;;7.86;100.00;99627.50;4921301;28;20486;-75
2022/01/09 11:09:09;;;;;;;14.43;3.15;;;;;;;7.65;100.00;99629.63;4929001;28;20035;-74
2022/01/09 11:11:38;;;;;;;23.38;4.07;;;;;;;7.43;100.00;99632.94;4920878;28;20054;-74
2022/01/09 11:14:07;;;;;;;12.52;2.88;;;;;;;7.26;100.00;99638.84;4902458;28;20050;-74
2022/01/09 11:16:33;;;;;;;22.35;2.67;;;;;;;7.14;100.00;99645.97;4925377;28;20050;-74
2022/01/09 11:19:16;;;;;;;20.80;2.85;;;;;;;7.02;100.00;99645.88;4913063;28;20061;-75
2022/01/09 11:21:50;;;;;;;18.00;2.97;;;;;;;6.93;100.00;99652.53;4926386;28;20057;-75